Time;durP1;ratioP1;P1;durP2;ratioP2;P2;SDS_P1;SDS_P2;PMS_P1;PMS_P2;Temp;Humidity;BMP_temperature;BMP_pressure;BME280_temperature;BME280_humidity;BME280_pressure;Samples;Min_cycle;Max_cycle;Signal;HPM_P1;HPM_P2
2021/11/29 00:01:58;;;;;;;13.83;11.80;;;;;;;-0.76;100.00;96314.88;5047289;28;20214;-82
2021/11/29 00:04:27;;;;;;;12.87;11.57;;;;;;;-0.80;100.00;96300.50;5037116;28;20494;-79
2021/11/29 00:06:55;;;;;;;13.17;11.87;;;;;;;-0.75;100.00;96309.56;5045361;28;20493;-79
2021/11/29 00:09:23;;;;;;;11.60;10.50;;;;;;;-0.87;100.00;96313.19;5039858;28;20285;-80
2021/11/29 00:11:53;;;;;;;14.27;11.93;;;;;;;-0.86;100.00;96311.44;5035729;28;21040;-80
2021/11/29 00:14:21;;;;;;;17.00;13.43;;;;;;;-0.94;100.00;96312.94;5000420;28;20860;-77
2021/11/29 00:16:49;;;;;;;13.40;11.93;;;;;;;-0.91;100.00;96320.47;5047608;28;20258;-79
2021/11/29 00:19:18;;;;;;;15.37;12.57;;;;;;;-0.96;100.00;96324.41;5054544;28;20227;-79
2021/11/29 00:21:46;;;;;;;16.07;13.27;;;;;;;-0.92;100.00;96331.00;5030561;28;20783;-79
2021/11/29 00:24:15;;;;;;;12.50;11.30;;;;;;;-0.94;100.00;96332.91;5051166;28;21229;-80
2021/11/29 00:26:43;;;;;;;12.77;11.43;;;;;;;-0.83;100.00;96331.97;5036392;28;20704;-79
2021/11/29 00:29:14;;;;;;;13.70;12.33;;;;;;;-0.89;100.00;96338.53;5016069;28;20432;-80
2021/11/29 00:31:42;;;;;;;14.60;11.13;;;;;;;-0.76;100.00;96340.88;5045543;28;20202;-80
2021/11/29 00:34:10;;;;;;;14.10;12.70;;;;;;;-0.79;100.00;96338.56;5052129;28;20818;-81
2021/11/29 00:36:39;;;;;;;14.20;12.73;;;;;;;-0.77;100.00;96354.84;5047637;28;20218;-79
2021/11/29 00:39:07;;;;;;;14.43;12.23;;;;;;;-0.84;100.00;96354.56;5055499;28;20348;-79
2021/11/29 00:41:35;;;;;;;14.10;12.50;;;;;;;-0.57;100.00;96354.88;5036270;28;20496;-79
2021/11/29 00:44:03;;;;;;;13.50;12.20;;;;;;;-0.70;100.00;96355.97;5053542;28;20450;-80
2021/11/29 00:46:33;;;;;;;16.23;13.17;;;;;;;-0.69;100.00;96357.59;5017645;28;20265;-78
2021/11/29 00:49:01;;;;;;;14.93;13.37;;;;;;;-0.74;100.00;96364.97;5049606;28;20207;-81
2021/11/29 00:51:30;;;;;;;14.07;12.53;;;;;;;-0.80;100.00;96360.31;5057532;28;20587;-81
2021/11/29 00:53:58;;;;;;;13.67;12.13;;;;;;;-0.80;100.00;96358.53;5042362;28;20405;-80
2021/11/29 00:56:28;;;;;;;14.27;12.73;;;;;;;-0.75;100.00;96360.75;5054784;28;20211;-77
2021/11/29 00:58:56;;;;;;;15.50;12.87;;;;;;;-0.78;100.00;96363.59;5023592;28;20873;-81
2021/11/29 01:01:25;;;;;;;13.87;12.23;;;;;;;-0.71;100.00;96356.91;5026952;28;20215;-82
2021/11/29 01:03:54;;;;;;;18.73;14.23;;;;;;;-0.76;100.00;96356.50;5038570;28;20203;-80
2021/11/29 01:06:23;;;;;;;12.90;11.60;;;;;;;-0.74;100.00;96363.22;5052049;28;20258;-80
2021/11/29 01:08:51;;;;;;;16.23;13.57;;;;;;;-0.80;100.00;96360.31;5046293;28;20237;-79
2021/11/29 01:11:19;;;;;;;14.70;13.03;;;;;;;-0.86;100.00;96361.66;5037532;28;20208;-82
2021/11/29 01:13:47;;;;;;;14.10;12.60;;;;;;;-0.82;100.00;96364.84;5043492;28;20305;-79
2021/11/29 01:16:16;;;;;;;14.87;12.90;;;;;;;-0.80;100.00;96362.91;5020734;28;20817;-80
2021/11/29 01:18:44;;;;;;;17.97;13.17;;;;;;;-0.71;100.00;96366.50;5043379;28;20263;-80
2021/11/29 01:21:13;;;;;;;14.67;13.10;;;;;;;-0.85;100.00;96370.31;5049522;28;20441;-79
2021/11/29 01:23:42;;;;;;;14.13;12.63;;;;;;;-0.92;100.00;96375.19;5030291;28;20410;-80
2021/11/29 01:26:11;;;;;;;15.13;13.53;;;;;;;-0.97;100.00;96372.97;5048085;28;20226;-82
2021/11/29 01:28:39;;;;;;;16.33;13.30;;;;;;;-0.93;100.00;96373.56;5041177;28;20236;-79
2021/11/29 01:31:08;;;;;;;13.60;12.17;;;;;;;-0.96;100.00;96372.03;5002427;28;21068;-78
2021/11/29 01:33:36;;;;;;;13.70;12.30;;;;;;;-0.96;100.00;96382.44;5043480;28;20212;-80
2021/11/29 01:36:05;;;;;;;14.43;12.93;;;;;;;-0.97;100.00;96382.59;5032496;28;20230;-80
2021/11/29 01:38:35;;;;;;;14.60;13.20;;;;;;;-0.99;100.00;96384.50;5026380;28;20241;-81
2021/11/29 01:41:04;;;;;;;14.53;12.90;;;;;;;-0.99;100.00;96385.28;5030851;28;20209;-80
2021/11/29 01:43:33;;;;;;;19.57;13.13;;;;;;;-0.99;100.00;96387.09;5053757;28;20217;-79
2021/11/29 01:46:01;;;;;;;14.47;12.97;;;;;;;-1.04;100.00;96390.06;5026826;28;20563;-79
2021/11/29 01:48:31;;;;;;;14.93;12.63;;;;;;;-1.03;100.00;96387.34;5031363;28;20246;-80
2021/11/29 01:51:00;;;;;;;14.87;13.27;;;;;;;-1.06;100.00;96382.41;5032694;28;20215;-80
2021/11/29 01:53:30;;;;;;;15.97;13.93;;;;;;;-1.03;100.00;96391.72;5038201;28;21366;-79
2021/11/29 01:56:00;;;;;;;15.73;13.47;;;;;;;-1.01;100.00;96382.00;5036728;28;20920;-79
2021/11/29 01:58:31;;;;;;;14.57;12.93;;;;;;;-1.00;100.00;96388.84;5034296;28;20249;-82
2021/11/29 02:01:05;;;;;;;15.40;13.70;;;;;;;-1.02;100.00;96385.56;5032706;28;20216;-79
2021/11/29 02:03:35;;;;;;;16.40;13.87;;;;;;;-0.94;100.00;96388.34;5030266;28;20210;-80
2021/11/29 02:06:03;;;;;;;15.33;13.07;;;;;;;-0.87;100.00;96393.84;5049004;28;20202;-78
2021/11/29 02:08:32;;;;;;;15.40;13.63;;;;;;;-0.87;100.00;96386.03;5024443;28;20234;-78
2021/11/29 02:11:02;;;;;;;17.07;13.97;;;;;;;-0.82;100.00;96388.25;5053653;28;20592;-78
2021/11/29 02:13:30;;;;;;;16.70;15.00;;;;;;;-0.81;100.00;96392.50;5049320;28;20210;-78
2021/11/29 02:15:58;;;;;;;16.60;14.07;;;;;;;-0.80;100.00;96394.13;5039752;28;20964;-80
2021/11/29 02:18:28;;;;;;;20.97;14.47;;;;;;;-0.80;100.00;96394.94;5002988;28;20585;-79
2021/11/29 02:21:05;;;;;;;18.47;14.00;;;;;;;-0.81;100.00;96398.50;5045592;28;20764;-79
2021/11/29 02:23:34;;;;;;;13.57;12.17;;;;;;;-0.87;100.00;96399.03;5033180;28;20213;-78
2021/11/29 02:26:03;;;;;;;18.80;16.13;;;;;;;-0.81;100.00;96402.91;5053124;28;20207;-80
2021/11/29 02:28:33;;;;;;;18.30;14.17;;;;;;;-0.75;100.00;96397.16;5053341;28;20241;-79
2021/11/29 02:31:02;;;;;;;18.47;14.57;;;;;;;-0.83;100.00;96397.81;5028217;28;20701;-80
2021/11/29 02:33:30;;;;;;;19.10;15.77;;;;;;;-0.81;100.00;96400.28;5010230;28;20214;-78
2021/11/29 02:35:58;;;;;;;19.03;15.20;;;;;;;-0.82;100.00;96409.06;5039635;28;20208;-80
2021/11/29 02:38:28;;;;;;;19.33;14.50;;;;;;;-0.85;100.00;96411.91;5046470;28;20317;-78
2021/11/29 02:40:56;;;;;;;15.90;13.87;;;;;;;-0.74;100.00;96406.59;5050883;28;20204;-80
2021/11/29 02:43:24;;;;;;;16.43;14.50;;;;;;;-0.79;100.00;96412.19;5025301;28;20770;-78
2021/11/29 02:45:53;;;;;;;21.67;15.00;;;;;;;-0.77;100.00;96415.50;5049614;28;20216;-81
2021/11/29 02:48:38;;;;;;;20.17;14.57;;;;;;;-0.92;100.00;96414.22;5003414;28;20262;-78
2021/11/29 02:51:07;;;;;;;17.07;13.97;;;;;;;-0.95;100.00;96417.06;5050635;28;20465;-81
2021/11/29 02:53:38;;;;;;;15.87;14.17;;;;;;;-0.93;100.00;96423.81;5038055;28;20295;-80
2021/11/29 02:56:09;;;;;;;16.70;14.20;;;;;;;-0.91;100.00;96421.91;5045109;28;20219;-79
2021/11/29 02:58:41;;;;;;;17.67;14.60;;;;;;;-0.74;100.00;96424.81;5017705;22;20506;-71
2021/11/29 03:01:09;;;;;;;18.00;14.70;;;;;;;-0.82;100.00;96429.88;4979865;28;20495;-71
2021/11/29 03:03:45;;;;;;;17.63;14.27;;;;;;;-0.84;100.00;96423.97;4927161;28;20238;-71
2021/11/29 03:06:14;;;;;;;17.43;14.20;;;;;;;-0.82;100.00;96433.28;4993265;28;20200;-71
2021/11/29 03:08:43;;;;;;;16.63;13.93;;;;;;;-0.79;100.00;96433.00;5000695;28;20443;-71
2021/11/29 03:11:11;;;;;;;17.27;13.87;;;;;;;-0.81;100.00;96432.31;4979834;28;20451;-72
2021/11/29 03:13:39;;;;;;;16.13;13.90;;;;;;;-0.87;100.00;96440.66;5007255;28;20678;-71
2021/11/29 03:16:07;;;;;;;22.10;15.03;;;;;;;-0.96;100.00;96442.25;4988993;28;20418;-71
2021/11/29 03:18:38;;;;;;;17.13;14.07;;;;;;;-0.88;100.00;96437.25;4989290;28;20295;-71
2021/11/29 03:21:07;;;;;;;15.17;13.57;;;;;;;-0.68;100.00;96439.91;4938506;28;20584;-70
2021/11/29 03:23:35;;;;;;;13.07;11.67;;;;;;;-0.64;100.00;96437.88;5004592;28;20235;-71
2021/11/29 03:26:08;;;;;;;15.30;12.70;;;;;;;-0.75;100.00;96439.63;4957248;28;20914;-71
2021/11/29 03:28:38;;;;;;;15.07;12.30;;;;;;;-0.68;100.00;96447.69;5004840;28;20709;-71
2021/11/29 03:31:07;;;;;;;11.37;10.17;;;;;;;-0.53;100.00;96444.75;4967478;28;21152;-69
2021/11/29 03:33:36;;;;;;;9.67;8.77;;;;;;;-0.55;100.00;96447.47;5008055;28;20224;-69
2021/11/29 03:36:05;;;;;;;10.27;8.97;;;;;;;-0.68;100.00;96454.69;4916156;28;20916;-69
2021/11/29 03:38:34;;;;;;;9.87;8.87;;;;;;;-0.75;100.00;96451.78;4970529;28;21014;-69
2021/11/29 03:41:03;;;;;;;10.43;9.43;;;;;;;-0.82;100.00;96454.09;4973293;28;20490;-69
2021/11/29 03:43:33;;;;;;;9.30;8.40;;;;;;;-0.85;100.00;96463.94;4971959;28;20237;-69
2021/11/29 03:46:01;;;;;;;9.30;8.40;;;;;;;-0.86;100.00;96467.50;4986973;28;20232;-70
2021/11/29 03:48:30;;;;;;;8.73;7.80;;;;;;;-0.91;100.00;96466.13;5005292;28;20904;-69
2021/11/29 03:50:59;;;;;;;9.07;8.27;;;;;;;-0.97;100.00;96466.59;4930898;23;20481;-69
2021/11/29 03:53:27;;;;;;;8.47;7.57;;;;;;;-1.08;100.00;96462.34;5019225;28;20230;-69
2021/11/29 03:55:55;;;;;;;9.33;8.30;;;;;;;-0.94;100.00;96471.56;4974451;28;20469;-69
2021/11/29 03:58:23;;;;;;;8.03;7.23;;;;;;;-0.94;100.00;96470.75;5005023;28;20439;-69
2021/11/29 04:00:53;;;;;;;9.47;8.17;;;;;;;-1.05;100.00;96480.28;4987349;28;20809;-69
2021/11/29 04:03:22;;;;;;;8.60;7.73;;;;;;;-1.02;100.00;96472.22;5002117;28;20239;-69
2021/11/29 04:05:50;;;;;;;9.07;8.00;;;;;;;-1.11;100.00;96479.94;4948097;28;20458;-69
2021/11/29 04:08:18;;;;;;;9.03;8.23;;;;;;;-1.08;100.00;96485.72;4987659;28;20524;-69
2021/11/29 04:10:46;;;;;;;9.63;8.63;;;;;;;-1.18;100.00;96492.63;5009593;28;20827;-69
2021/11/29 04:13:14;;;;;;;9.00;7.73;;;;;;;-1.17;100.00;96491.69;4968678;28;20851;-69
2021/11/29 04:15:42;;;;;;;10.30;9.20;;;;;;;-1.13;100.00;96482.69;5008703;28;20598;-69
2021/11/29 04:18:12;;;;;;;10.07;9.07;;;;;;;-1.23;100.00;96493.03;4983194;28;20810;-69
2021/11/29 04:20:40;;;;;;;9.70;8.73;;;;;;;-1.23;100.00;96497.38;5004192;28;20494;-71
2021/11/29 04:23:17;;;;;;;9.97;8.97;;;;;;;-1.29;100.00;96492.69;4990732;28;21067;-69
2021/11/29 04:25:48;;;;;;;10.43;9.20;;;;;;;-1.35;100.00;96492.25;4986321;28;20674;-69
2021/11/29 04:28:16;;;;;;;10.60;8.97;;;;;;;-1.41;100.00;96499.72;4986224;28;20772;-69
2021/11/29 04:30:45;;;;;;;9.67;8.50;;;;;;;-1.46;100.00;96500.13;4977415;28;20747;-70
2021/11/29 04:33:14;;;;;;;10.30;9.20;;;;;;;-1.41;100.00;96502.31;4988028;28;20470;-69
2021/11/29 04:35:49;;;;;;;10.13;9.13;;;;;;;-1.38;100.00;96509.88;4992710;28;20803;-69
2021/11/29 04:38:20;;;;;;;10.10;8.43;;;;;;;-1.46;100.00;96511.31;4994028;28;20546;-69
2021/11/29 04:40:48;;;;;;;11.23;9.13;;;;;;;-1.56;100.00;96507.84;5005501;28;20486;-69
2021/11/29 04:43:17;;;;;;;12.27;10.20;;;;;;;-1.62;100.00;96505.75;4986510;28;20710;-69
2021/11/29 04:45:46;;;;;;;11.17;9.90;;;;;;;-1.66;100.00;96507.75;5007905;28;20451;-69
2021/11/29 04:48:16;;;;;;;12.57;10.20;;;;;;;-1.64;100.00;96513.66;4975890;28;20422;-69
2021/11/29 04:50:44;;;;;;;15.77;10.47;;;;;;;-1.65;100.00;96512.00;5000215;28;20447;-69
2021/11/29 04:53:12;;;;;;;11.20;9.93;;;;;;;-1.65;100.00;96511.19;4921370;28;21908;-69
2021/11/29 04:55:40;;;;;;;12.50;9.57;;;;;;;-1.62;100.00;96518.72;4985609;28;20220;-69
2021/11/29 04:58:08;;;;;;;10.50;8.77;;;;;;;-1.64;100.00;96526.63;4989275;28;20738;-70
2021/11/29 05:00:36;;;;;;;8.93;8.10;;;;;;;-1.65;100.00;96524.19;4978056;28;20490;-70
2021/11/29 05:03:04;;;;;;;11.07;9.80;;;;;;;-1.64;100.00;96528.41;4996044;28;20813;-69
2021/11/29 05:05:34;;;;;;;10.23;9.00;;;;;;;-1.64;100.00;96537.03;5007254;28;20461;-69
2021/11/29 05:08:22;;;;;;;13.43;12.13;;;;;;;-1.55;100.00;96547.63;4952420;28;20961;-69
2021/11/29 05:10:50;;;;;;;12.97;11.37;;;;;;;-1.60;100.00;96551.41;5009378;28;20203;-69
2021/11/29 05:13:18;;;;;;;11.13;9.93;;;;;;;-1.57;100.00;96563.34;4965446;28;20236;-70
2021/11/29 05:15:47;;;;;;;9.40;8.50;;;;;;;-1.57;100.00;96563.34;5003621;28;20262;-69
2021/11/29 05:18:15;;;;;;;11.67;10.40;;;;;;;-1.48;100.00;96572.19;4979537;28;20558;-69
2021/11/29 05:20:45;;;;;;;10.53;8.90;;;;;;;-1.45;100.00;96566.72;5003325;28;20224;-69
2021/11/29 05:23:13;;;;;;;9.07;8.07;;;;;;;-1.45;100.00;96566.72;4948389;28;20400;-69
2021/11/29 05:25:41;;;;;;;11.30;9.77;;;;;;;-1.39;100.00;96568.84;4979464;28;20218;-68
2021/11/29 05:28:09;;;;;;;10.40;9.07;;;;;;;-1.38;100.00;96564.44;5003188;28;20220;-67
2021/11/29 05:30:37;;;;;;;10.93;9.60;;;;;;;-1.38;100.00;96577.44;4964133;28;20216;-68
2021/11/29 05:33:05;;;;;;;10.57;9.57;;;;;;;-1.39;100.00;96583.59;4998834;28;20283;-69
2021/11/29 05:35:33;;;;;;;12.07;9.80;;;;;;;-1.27;100.00;96579.19;5006023;28;20837;-70
2021/11/29 05:38:03;;;;;;;14.00;10.73;;;;;;;-1.13;100.00;96586.69;4918129;28;20856;-69
2021/11/29 05:40:32;;;;;;;10.57;9.40;;;;;;;-1.21;100.00;96589.91;4990625;28;20343;-70
2021/11/29 05:43:00;;;;;;;13.70;9.83;;;;;;;-1.21;100.00;96589.91;4972628;28;20828;-69
2021/11/29 05:45:28;;;;;;;12.83;10.10;;;;;;;-1.21;100.00;96594.28;4989213;28;20207;-69
2021/11/29 05:47:57;;;;;;;11.80;10.50;;;;;;;-1.05;100.00;96586.88;4954815;28;20220;-69
2021/11/29 05:50:25;;;;;;;11.37;10.17;;;;;;;-1.06;100.00;96597.41;5005368;28;20208;-70
2021/11/29 05:52:53;;;;;;;11.47;10.33;;;;;;;-1.11;100.00;96594.34;4994753;28;20637;-68
2021/11/29 05:55:23;;;;;;;14.00;11.70;;;;;;;-1.09;100.00;96603.69;4956718;28;20216;-68
2021/11/29 05:57:51;;;;;;;12.93;11.47;;;;;;;-1.10;100.00;96601.19;5004560;28;20630;-69
2021/11/29 06:00:20;;;;;;;14.37;11.60;;;;;;;-0.98;100.00;96607.19;4978599;28;20353;-69
2021/11/29 06:02:48;;;;;;;14.40;12.67;;;;;;;-0.91;100.00;96613.53;4979996;28;20215;-68
2021/11/29 06:05:17;;;;;;;12.70;11.30;;;;;;;-0.99;100.00;96608.94;4988068;28;20546;-69
2021/11/29 06:07:45;;;;;;;13.03;11.63;;;;;;;-1.05;100.00;96619.84;4973672;28;20455;-68
2021/11/29 06:10:14;;;;;;;15.67;12.60;;;;;;;-1.00;100.00;96622.91;4953739;28;20215;-69
2021/11/29 06:12:45;;;;;;;14.17;11.83;;;;;;;-1.08;100.00;96620.09;4975384;28;20814;-68
2021/11/29 06:15:15;;;;;;;15.97;12.73;;;;;;;-0.91;100.00;96624.75;5012030;28;20661;-69
2021/11/29 06:17:44;;;;;;;16.23;12.93;;;;;;;-0.95;100.00;96625.94;4970142;28;20215;-68
2021/11/29 06:20:19;;;;;;;14.33;12.50;;;;;;;-0.79;100.00;96635.09;4983889;28;20695;-70
2021/11/29 06:22:48;;;;;;;15.67;12.33;;;;;;;-0.91;100.00;96636.94;4998340;28;20235;-69
2021/11/29 06:25:16;;;;;;;16.20;13.07;;;;;;;-0.85;100.00;96640.81;4928271;28;20231;-69
2021/11/29 06:27:46;;;;;;;16.87;13.80;;;;;;;-0.88;100.00;96644.47;5000094;28;20671;-69
2021/11/29 06:30:14;;;;;;;23.10;17.73;;;;;;;-0.94;100.00;96643.22;4980152;28;20216;-68
2021/11/29 06:32:42;;;;;;;17.10;14.80;;;;;;;-0.93;100.00;96644.88;4971110;28;20988;-68
2021/11/29 06:35:11;;;;;;;23.63;19.03;;;;;;;-0.87;100.00;96651.34;4984373;28;20512;-68
2021/11/29 06:37:40;;;;;;;18.33;15.20;;;;;;;-0.96;100.00;96647.69;4970823;28;20204;-69
2021/11/29 06:40:10;;;;;;;18.47;14.40;;;;;;;-0.87;100.00;96651.34;4993882;28;21022;-71
2021/11/29 06:42:38;;;;;;;23.67;17.17;;;;;;;-0.90;100.00;96662.00;4918408;28;20235;-67
2021/11/29 06:45:08;;;;;;;16.50;13.33;;;;;;;-0.97;100.00;96669.47;4998130;28;20803;-69
2021/11/29 06:47:40;;;;;;;16.73;15.03;;;;;;;-0.93;100.00;96665.69;4976571;28;20208;-68
2021/11/29 06:50:09;;;;;;;25.50;20.23;;;;;;;-0.93;100.00;96670.03;4979576;28;21071;-69
2021/11/29 06:52:37;;;;;;;16.33;13.87;;;;;;;-0.83;100.00;96681.34;5000413;28;20208;-68
2021/11/29 06:55:07;;;;;;;22.07;19.70;;;;;;;-0.82;100.00;96683.00;4965222;28;20529;-69
2021/11/29 06:57:35;;;;;;;60.90;50.33;;;;;;;-0.93;100.00;96683.03;4945308;28;20216;-69
2021/11/29 07:00:04;;;;;;;33.10;29.47;;;;;;;-0.89;100.00;96682.69;4976436;28;20421;-70
2021/11/29 07:02:34;;;;;;;21.83;18.10;;;;;;;-1.02;100.00;96690.66;4958155;28;20875;-72
2021/11/29 07:05:02;;;;;;;23.93;21.40;;;;;;;-1.01;100.00;96688.88;5003861;28;20310;-69
2021/11/29 07:07:31;;;;;;;17.40;14.10;;;;;;;-0.96;100.00;96694.50;4977698;28;21079;-69
2021/11/29 07:09:59;;;;;;;18.23;14.83;;;;;;;-0.85;100.00;96703.25;4985905;28;20212;-68
2021/11/29 07:12:27;;;;;;;32.23;23.43;;;;;;;-0.89;100.00;96708.69;4941384;28;20222;-69
2021/11/29 07:14:55;;;;;;;16.83;13.87;;;;;;;-0.85;100.00;96711.84;4999135;28;20247;-69
2021/11/29 07:17:24;;;;;;;16.93;13.23;;;;;;;-0.92;100.00;96718.50;4985441;28;20976;-67
2021/11/29 07:19:53;;;;;;;18.07;14.23;;;;;;;-0.67;100.00;96734.75;4999146;28;20220;-69
2021/11/29 07:22:24;;;;;;;17.40;14.70;;;;;;;-0.75;100.00;96727.56;4965953;28;20489;-67
2021/11/29 07:24:53;;;;;;;22.83;17.67;;;;;;;-0.73;100.00;96739.50;4985396;28;20228;-69
2021/11/29 07:27:22;;;;;;;19.67;17.33;;;;;;;-0.74;100.00;96739.63;4945315;28;20212;-68
2021/11/29 07:29:52;;;;;;;17.40;12.87;;;;;;;-0.67;100.00;96742.56;4975808;28;20204;-70
2021/11/29 07:32:20;;;;;;;23.33;18.07;;;;;;;-0.62;100.00;96749.03;5003142;28;20204;-69
2021/11/29 07:34:48;;;;;;;17.63;15.73;;;;;;;-0.71;100.00;96748.97;4957779;28;20466;-70
2021/11/29 07:37:20;;;;;;;16.67;13.90;;;;;;;-0.67;100.00;96747.75;4998598;28;20798;-69
2021/11/29 07:39:49;;;;;;;18.13;16.23;;;;;;;-0.66;100.00;96752.81;4978265;28;20457;-70
2021/11/29 07:42:17;;;;;;;16.13;13.73;;;;;;;-0.67;100.00;96753.78;4926183;28;20251;-69
2021/11/29 07:44:45;;;;;;;18.00;15.47;;;;;;;-0.68;100.00;96757.31;5002132;28;20387;-68
2021/11/29 07:47:14;;;;;;;15.30;12.23;;;;;;;-0.64;100.00;96758.72;4982688;28;20209;-69
2021/11/29 07:49:42;;;;;;;18.07;14.30;;;;;;;-0.57;100.00;96760.84;4986008;28;20965;-72
2021/11/29 07:52:13;;;;;;;16.97;13.53;;;;;;;-0.57;100.00;96763.44;5004113;28;20529;-68
2021/11/29 07:54:43;;;;;;;13.80;11.77;;;;;;;-0.42;100.00;96767.41;4996545;28;20722;-70
2021/11/29 07:57:23;;;;;;;19.57;16.23;;;;;;;-0.45;100.00;96775.47;4977774;28;20233;-70
2021/11/29 07:59:51;;;;;;;22.70;18.33;;;;;;;-0.48;100.00;96773.94;4967602;28;20303;-69
2021/11/29 08:02:19;;;;;;;20.97;16.40;;;;;;;-0.45;100.00;96786.69;5005116;28;20220;-69
2021/11/29 08:04:47;;;;;;;18.20;14.33;;;;;;;-0.31;100.00;96785.56;4981758;28;20235;-70
2021/11/29 08:07:17;;;;;;;15.97;13.87;;;;;;;-0.32;100.00;96789.13;5004655;28;20211;-68
2021/11/29 08:09:47;;;;;;;19.70;13.77;;;;;;;-0.40;100.00;96790.69;5005780;28;20200;-69
2021/11/29 08:12:26;;;;;;;15.30;13.70;;;;;;;-0.38;100.00;96789.63;4945086;28;20227;-68
2021/11/29 08:14:54;;;;;;;14.23;11.77;;;;;;;-0.34;100.00;96795.44;5010568;28;20223;-70
2021/11/29 08:17:22;;;;;;;17.63;13.50;;;;;;;-0.19;100.00;96801.97;4983093;28;20211;-69
2021/11/29 08:19:53;;;;;;;14.17;10.90;;;;;;;-0.39;100.00;96795.78;4991852;28;20228;-69
2021/11/29 08:22:21;;;;;;;14.23;11.10;;;;;;;-0.32;100.00;96799.53;4996484;28;20481;-68
2021/11/29 08:24:51;;;;;;;14.30;12.13;;;;;;;-0.18;100.00;96808.84;5008398;28;20322;-71
2021/11/29 08:27:19;;;;;;;14.73;11.93;;;;;;;-0.14;100.00;96806.81;4990703;28;20450;-69
2021/11/29 08:29:47;;;;;;;15.63;11.33;;;;;;;0.15;100.00;96811.38;4963975;28;20208;-70
2021/11/29 08:32:16;;;;;;;12.87;10.07;;;;;;;-0.05;100.00;96813.03;5006770;28;20292;-72
2021/11/29 08:34:44;;;;;;;13.97;12.07;;;;;;;-0.10;100.00;96813.41;4982092;28;20236;-71
2021/11/29 08:37:15;;;;;;;13.67;11.47;;;;;;;-0.03;100.00;96801.53;5010121;28;20208;-69
2021/11/29 08:39:45;;;;;;;14.87;11.43;;;;;;;-0.17;100.00;96815.69;4987679;28;20200;-70
2021/11/29 08:42:14;;;;;;;12.87;10.67;;;;;;;-0.17;100.00;96815.69;4978029;28;20490;-68
2021/11/29 08:44:42;;;;;;;11.63;10.43;;;;;;;-0.14;100.00;96822.44;4943317;28;20242;-70
2021/11/29 08:47:11;;;;;;;20.13;14.60;;;;;;;0.00;100.00;96823.91;4979169;28;20328;-69
2021/11/29 08:49:39;;;;;;;18.77;13.53;;;;;;;-0.02;100.00;96829.25;5006836;28;20200;-70
2021/11/29 08:52:07;;;;;;;17.87;15.07;;;;;;;-0.02;100.00;96834.44;4957670;28;20591;-68
2021/11/29 08:54:37;;;;;;;21.47;15.20;;;;;;;-0.02;100.00;96842.25;4985497;28;20231;-69
2021/11/29 08:57:06;;;;;;;22.27;17.23;;;;;;;0.06;100.00;96843.41;5007423;28;20204;-69
2021/11/29 08:59:36;;;;;;;28.10;17.13;;;;;;;0.10;100.00;96853.47;4933469;28;21249;-69
2021/11/29 09:02:04;;;;;;;31.43;21.33;;;;;;;0.06;100.00;96849.47;5004504;28;20289;-70
2021/11/29 09:04:33;;;;;;;17.93;13.33;;;;;;;-0.01;100.00;96856.94;4973836;28;20225;-69
2021/11/29 09:07:02;;;;;;;16.13;12.17;;;;;;;0.01;100.00;96862.03;4990367;28;20204;-69
2021/11/29 09:09:31;;;;;;;13.47;11.70;;;;;;;0.18;100.00;96859.81;4979062;28;20231;-69
2021/11/29 09:12:00;;;;;;;16.37;12.13;;;;;;;0.14;100.00;96864.44;5005458;28;20355;-69
2021/11/29 09:14:28;;;;;;;20.40;16.17;;;;;;;0.17;100.00;96864.19;4950608;28;20853;-68
2021/11/29 09:16:58;;;;;;;19.43;13.93;;;;;;;0.02;100.00;96865.44;4980114;28;20706;-69
2021/11/29 09:19:27;;;;;;;16.13;13.10;;;;;;;0.06;100.00;96879.88;5004222;28;20204;-69
2021/11/29 09:21:56;;;;;;;12.80;11.43;;;;;;;0.17;100.00;96877.22;4979430;28;20204;-70
2021/11/29 09:24:24;;;;;;;15.03;11.17;;;;;;;0.20;100.00;96881.34;4970906;28;20235;-69
2021/11/29 09:26:52;;;;;;;20.83;14.23;;;;;;;0.13;100.00;96881.88;5005808;28;20203;-68
2021/11/29 09:29:21;;;;;;;15.13;11.23;;;;;;;0.09;100.00;96885.69;4966236;28;20634;-69
2021/11/29 09:31:49;;;;;;;12.00;10.70;;;;;;;0.15;100.00;96892.16;4959439;28;20443;-69
2021/11/29 09:34:18;;;;;;;12.43;10.90;;;;;;;0.10;100.00;96896.91;4974599;28;20243;-69
2021/11/29 09:36:46;;;;;;;12.97;10.60;;;;;;;0.24;100.00;96890.56;5009455;28;20541;-69
2021/11/29 09:39:14;;;;;;;11.10;9.70;;;;;;;0.32;100.00;96895.16;4979918;28;20205;-69
2021/11/29 09:41:43;;;;;;;11.43;9.03;;;;;;;0.30;100.00;96892.66;4970644;28;20208;-69
2021/11/29 09:44:11;;;;;;;19.23;12.70;;;;;;;0.35;100.00;96895.72;5005051;28;20243;-70
2021/11/29 09:46:39;;;;;;;11.00;9.77;;;;;;;0.30;100.00;96897.88;4940637;28;20212;-70
2021/11/29 09:49:07;;;;;;;10.60;9.17;;;;;;;0.39;100.00;96899.75;5007527;28;20224;-69
2021/11/29 09:51:37;;;;;;;19.17;11.57;;;;;;;0.40;100.00;96906.63;4974429;28;20346;-69
2021/11/29 09:54:09;;;;;;;12.83;9.80;;;;;;;0.50;100.00;96898.03;5000445;28;20231;-70
2021/11/29 09:56:38;;;;;;;16.20;10.70;;;;;;;0.60;100.00;96906.72;4965167;28;20973;-69
2021/11/29 09:59:06;;;;;;;14.47;8.67;;;;;;;0.57;100.00;96909.59;4973856;28;20664;-70
2021/11/29 10:01:34;;;;;;;23.33;13.43;;;;;;;0.57;100.00;96910.44;4938548;28;20801;-70
2021/11/29 10:04:05;;;;;;;12.20;9.30;;;;;;;0.37;100.00;96903.41;4985030;28;21394;-70
2021/11/29 10:06:34;;;;;;;11.20;8.23;;;;;;;0.27;100.00;96914.63;5000928;28;20211;-70
2021/11/29 10:09:29;;;;;;;18.40;11.43;;;;;;;0.17;100.00;96911.09;5011632;28;20295;-70
2021/11/29 10:12:01;;;;;;;14.67;8.43;;;;;;;0.12;100.00;96918.44;4988950;28;20204;-69
2021/11/29 10:14:29;;;;;;;8.37;7.50;;;;;;;0.17;100.00;96913.69;5004963;28;20960;-70
2021/11/29 10:17:00;;;;;;;8.43;7.47;;;;;;;0.17;100.00;96911.09;4936781;28;20362;-68
2021/11/29 10:19:36;;;;;;;8.17;7.17;;;;;;;0.15;100.00;96918.19;5004497;28;20199;-69
2021/11/29 10:22:16;;;;;;;7.97;6.80;;;;;;;0.20;100.00;96912.63;4985109;28;20223;-70
2021/11/29 10:24:47;;;;;;;8.20;7.00;;;;;;;0.33;100.00;96912.44;4984484;28;20876;-69
2021/11/29 10:27:15;;;;;;;9.23;7.17;;;;;;;0.13;100.00;96901.88;4973148;28;20215;-68
2021/11/29 10:29:50;;;;;;;11.73;8.30;;;;;;;0.19;100.00;96914.41;4987790;28;20446;-69
2021/11/29 10:32:30;;;;;;;8.40;7.43;;;;;;;0.35;100.00;96919.19;4966757;28;20457;-68
2021/11/29 10:34:58;;;;;;;8.00;6.87;;;;;;;0.21;100.00;96920.34;4978343;28;20232;-69
2021/11/29 10:37:27;;;;;;;10.87;7.70;;;;;;;0.29;100.00;96927.50;5003209;28;20611;-67
2021/11/29 10:39:57;;;;;;;8.40;7.00;;;;;;;0.42;100.00;96920.34;4977766;28;20211;-70
2021/11/29 10:42:28;;;;;;;8.90;6.73;;;;;;;0.50;100.00;96929.31;4963827;28;20877;-68
2021/11/29 10:44:56;;;;;;;8.53;6.90;;;;;;;0.54;100.00;96928.91;5003633;28;20236;-69
2021/11/29 10:47:27;;;;;;;7.50;6.67;;;;;;;0.50;100.00;96924.91;4946952;28;20212;-68
2021/11/29 10:49:57;;;;;;;6.93;6.30;;;;;;;0.64;100.00;96942.00;5004362;28;20999;-69
2021/11/29 10:52:27;;;;;;;7.63;6.03;;;;;;;0.56;100.00;96931.41;4973406;28;20236;-67
2021/11/29 10:54:58;;;;;;;7.50;6.07;;;;;;;0.48;100.00;96946.84;5011970;28;20220;-68
2021/11/29 10:57:27;;;;;;;7.00;6.23;;;;;;;0.32;100.00;96940.28;4949226;28;20208;-68
2021/11/29 10:59:56;;;;;;;9.00;6.23;;;;;;;0.47;100.00;96940.81;5003195;28;20455;-68
2021/11/29 11:02:26;;;;;;;9.07;6.77;;;;;;;0.70;100.00;96948.50;5003958;28;20490;-68
2021/11/29 11:05:03;;;;;;;10.30;6.87;;;;;;;0.65;100.00;96948.88;4962577;28;20258;-68
2021/11/29 11:07:34;;;;;;;6.37;5.77;;;;;;;0.67;100.00;96951.38;5010242;28;20219;-69
2021/11/29 11:10:06;;;;;;;10.17;6.63;;;;;;;0.82;100.00;96941.44;5003376;28;20439;-69
2021/11/29 11:12:36;;;;;;;7.53;6.73;;;;;;;0.86;100.00;96956.69;4988219;28;20208;-69
2021/11/29 11:15:10;;;;;;;7.80;6.37;;;;;;;0.62;100.00;96953.53;4980334;28;21375;-69
2021/11/29 11:18:00;;;;;;;7.57;6.67;;;;;;;0.75;100.00;96955.94;4975986;28;20200;-68
2021/11/29 11:20:28;;;;;;;7.27;6.57;;;;;;;0.97;100.00;96955.81;5009459;28;20904;-68
2021/11/29 11:22:57;;;;;;;7.00;6.33;;;;;;;1.10;100.00;96954.75;4978876;28;20208;-68
2021/11/29 11:25:31;;;;;;;7.57;6.43;;;;;;;1.15;100.00;96963.06;5004701;28;20224;-69